Time;durP1;ratioP1;P1;durP2;ratioP2;P2;SDS_P1;SDS_P2;PMS_P1;PMS_P2;Temp;Humidity;BMP_temperature;BMP_pressure;BME280_temperature;BME280_humidity;BME280_pressure;Samples;Min_cycle;Max_cycle;Signal;HPM_P1;HPM_P2
2023/07/17 00:00:11;;;;;;;5.13;3.57;;;19.80;99.90;;;;;;5155889;27;20192;-75
2023/07/17 00:02:39;;;;;;;7.20;3.70;;;19.80;99.90;;;;;;5155757;27;20250;-79
2023/07/17 00:05:07;;;;;;;4.80;3.97;;;19.80;99.90;;;;;;5156499;27;20622;-79
2023/07/17 00:07:35;;;;;;;4.53;3.70;;;19.80;99.90;;;;;;5155823;27;20219;-78
2023/07/17 00:10:04;;;;;;;6.67;3.80;;;19.80;99.90;;;;;;5156270;27;20201;-78
2023/07/17 00:12:32;;;;;;;5.07;3.93;;;19.70;99.90;;;;;;5155594;27;20279;-76
2023/07/17 00:15:00;;;;;;;4.93;3.93;;;19.70;99.90;;;;;;5156483;27;20204;-74
2023/07/17 00:17:30;;;;;;;6.63;3.90;;;19.70;99.90;;;;;;5158882;27;20270;-74
2023/07/17 00:19:58;;;;;;;4.10;3.70;;;19.70;99.90;;;;;;5158848;27;20205;-76
2023/07/17 00:22:27;;;;;;;4.70;3.90;;;19.80;99.90;;;;;;5159166;27;20249;-76
2023/07/17 00:24:55;;;;;;;6.60;4.57;;;19.80;99.90;;;;;;5158762;27;20201;-76
2023/07/17 00:27:23;;;;;;;5.97;4.10;;;19.80;99.90;;;;;;5157627;27;20215;-80
2023/07/17 00:29:51;;;;;;;5.77;4.17;;;19.80;99.90;;;;;;5155829;27;20299;-78
2023/07/17 00:32:20;;;;;;;8.63;4.40;;;19.80;99.90;;;;;;5154528;27;20209;-78
2023/07/17 00:34:49;;;;;;;5.57;4.40;;;19.80;99.90;;;;;;5154841;27;20200;-74
2023/07/17 00:37:17;;;;;;;5.60;4.00;;;19.80;99.90;;;;;;5154510;27;20238;-77
2023/07/17 00:39:45;;;;;;;7.90;4.40;;;19.80;99.90;;;;;;5154766;27;20262;-76
2023/07/17 00:42:13;;;;;;;5.77;4.17;;;19.80;99.90;;;;;;5154808;27;20201;-75
2023/07/17 00:44:41;;;;;;;4.13;3.67;;;19.80;99.90;;;;;;5155181;27;20209;-77
2023/07/17 00:47:10;;;;;;;4.80;4.03;;;19.80;99.90;;;;;;5154763;27;20205;-78
2023/07/17 00:49:40;;;;;;;5.77;4.13;;;19.80;99.90;;;;;;5154958;27;20221;-78
2023/07/17 00:52:11;;;;;;;5.87;4.60;;;19.80;99.90;;;;;;5154623;27;20208;-79
2023/07/17 00:54:42;;;;;;;7.27;4.27;;;19.90;99.90;;;;;;5155252;27;20328;-78
2023/07/17 00:57:11;;;;;;;7.30;4.40;;;19.80;99.90;;;;;;5154305;27;20235;-77
2023/07/17 00:59:41;;;;;;;5.43;4.37;;;19.80;99.90;;;;;;5154991;27;20201;-77
2023/07/17 01:02:10;;;;;;;5.07;4.03;;;19.80;99.90;;;;;;5154659;27;20213;-74
2023/07/17 01:04:43;;;;;;;4.80;4.30;;;19.80;99.90;;;;;;5155072;27;20208;-75
2023/07/17 01:07:13;;;;;;;8.30;4.57;;;19.80;99.90;;;;;;5156185;27;20205;-78
2023/07/17 01:09:41;;;;;;;5.53;4.50;;;19.80;99.90;;;;;;5157441;27;20254;-76
2023/07/17 01:12:10;;;;;;;6.33;4.20;;;19.80;99.90;;;;;;5155310;27;20604;-75
2023/07/17 01:14:38;;;;;;;5.30;4.20;;;19.80;99.90;;;;;;5154351;27;20324;-78
2023/07/17 01:17:06;;;;;;;5.40;4.00;;;19.80;99.90;;;;;;5154531;27;20208;-78
2023/07/17 01:19:35;;;;;;;5.77;3.87;;;19.80;99.90;;;;;;5155230;27;20442;-75
2023/07/17 01:22:11;;;;;;;5.93;3.83;;;19.80;99.90;;;;;;5154818;27;20731;-77
2023/07/17 01:24:40;;;;;;;6.07;3.90;;;19.80;99.90;;;;;;5163280;27;20200;-78
2023/07/17 01:27:09;;;;;;;6.80;4.03;;;19.80;99.90;;;;;;5175615;27;20207;-78
2023/07/17 01:29:37;;;;;;;5.70;3.90;;;19.80;99.90;;;;;;5176174;27;20215;-74
2023/07/17 01:32:06;;;;;;;5.40;3.90;;;19.70;99.90;;;;;;5173244;27;20208;-77
2023/07/17 01:34:35;;;;;;;6.77;4.17;;;19.70;99.90;;;;;;5154252;27;20208;-78
2023/07/17 01:37:03;;;;;;;5.07;4.23;;;19.60;99.90;;;;;;5155351;27;20215;-76
2023/07/17 01:39:32;;;;;;;5.03;4.30;;;19.60;99.90;;;;;;5154980;27;20293;-77
2023/07/17 01:42:01;;;;;;;4.90;4.20;;;19.50;99.90;;;;;;5155264;27;20209;-79
2023/07/17 01:44:30;;;;;;;4.87;4.37;;;19.40;99.90;;;;;;5155302;27;20259;-78
2023/07/17 01:46:59;;;;;;;6.37;4.77;;;19.40;99.90;;;;;;5154769;27;20213;-79
2023/07/17 01:49:27;;;;;;;7.23;4.70;;;19.40;99.90;;;;;;5154559;27;20221;-76
2023/07/17 01:51:55;;;;;;;7.83;4.87;;;19.40;99.90;;;;;;5153421;27;20209;-79
2023/07/17 01:54:23;;;;;;;5.83;4.30;;;19.30;99.90;;;;;;5153923;27;20201;-77
2023/07/17 01:56:51;;;;;;;5.83;4.50;;;19.40;99.90;;;;;;5153665;27;20205;-76
2023/07/17 01:59:20;;;;;;;4.90;4.40;;;19.30;99.90;;;;;;5163509;27;20654;-80
2023/07/17 02:01:49;;;;;;;5.00;4.50;;;19.30;99.90;;;;;;5174101;27;20196;-78
2023/07/17 02:04:17;;;;;;;5.47;4.83;;;19.30;99.90;;;;;;5174663;27;20204;-77
2023/07/17 02:06:45;;;;;;;7.90;5.30;;;19.30;99.90;;;;;;5172977;27;20236;-77
2023/07/17 02:09:13;;;;;;;7.27;5.17;;;19.30;99.90;;;;;;5174501;27;20235;-77
2023/07/17 02:11:41;;;;;;;6.77;4.87;;;19.20;99.90;;;;;;5173935;27;20204;-77
2023/07/17 02:14:09;;;;;;;5.60;5.00;;;19.20;99.90;;;;;;5174477;27;20205;-79
2023/07/17 02:16:38;;;;;;;6.73;5.10;;;19.20;99.90;;;;;;5160425;27;20235;-77
2023/07/17 02:19:07;;;;;;;7.97;5.17;;;19.10;99.90;;;;;;5153629;27;20225;-79
2023/07/17 02:21:35;;;;;;;6.93;5.10;;;19.10;99.90;;;;;;5153556;27;20212;-79
2023/07/17 02:24:04;;;;;;;9.20;5.50;;;19.10;99.90;;;;;;5153442;27;20622;-77
2023/07/17 02:26:32;;;;;;;7.50;5.30;;;19.10;99.90;;;;;;5153360;27;20209;-76
2023/07/17 02:29:00;;;;;;;7.90;5.43;;;19.10;99.90;;;;;;5152962;27;20236;-78
2023/07/17 02:31:28;;;;;;;6.83;5.30;;;19.00;99.90;;;;;;5153011;27;20228;-77
2023/07/17 02:33:57;;;;;;;7.27;5.70;;;19.00;99.90;;;;;;5153397;27;20216;-78
2023/07/17 02:36:25;;;;;;;7.20;5.57;;;19.00;99.90;;;;;;5153447;27;20883;-77
2023/07/17 02:38:53;;;;;;;5.50;4.80;;;19.00;99.90;;;;;;5154788;27;20309;-78
2023/07/17 02:41:21;;;;;;;7.37;5.30;;;19.00;99.90;;;;;;5173393;27;20204;-79
2023/07/17 02:43:51;;;;;;;9.13;5.47;;;19.00;99.90;;;;;;5177885;27;20216;-76
2023/07/17 02:46:19;;;;;;;6.97;5.27;;;19.10;99.90;;;;;;5178021;27;20208;-79
2023/07/17 02:48:47;;;;;;;7.30;5.60;;;19.10;99.90;;;;;;5178312;27;20203;-75
2023/07/17 02:51:17;;;;;;;6.47;5.40;;;19.10;99.90;;;;;;5161180;27;20283;-79
2023/07/17 02:53:45;;;;;;;8.90;5.67;;;19.10;99.90;;;;;;5156593;27;20227;-80
2023/07/17 02:56:13;;;;;;;6.30;5.70;;;19.10;99.90;;;;;;5157015;27;20236;-77
2023/07/17 02:58:42;;;;;;;7.93;6.13;;;19.10;99.90;;;;;;5156952;27;20302;-77
2023/07/17 03:01:10;;;;;;;6.83;5.47;;;19.10;99.90;;;;;;5175356;27;20204;-77
2023/07/17 03:03:38;;;;;;;9.17;5.70;;;19.10;99.90;;;;;;5177189;27;20210;-76
2023/07/17 03:06:07;;;;;;;7.60;5.30;;;19.10;99.90;;;;;;5177632;27;20305;-79
2023/07/17 03:08:36;;;;;;;7.57;5.90;;;19.10;99.90;;;;;;5171191;27;20292;-79
2023/07/17 03:11:05;;;;;;;8.03;5.30;;;19.10;99.90;;;;;;5157094;27;20221;-77
2023/07/17 03:13:33;;;;;;;8.60;5.50;;;19.20;99.90;;;;;;5158349;27;20268;-73
2023/07/17 03:16:01;;;;;;;7.13;5.67;;;19.20;99.90;;;;;;5156865;27;20253;-78
2023/07/17 03:18:29;;;;;;;10.87;6.60;;;19.20;99.90;;;;;;5175305;27;20256;-76
2023/07/17 03:20:57;;;;;;;10.97;7.20;;;19.20;99.90;;;;;;5175432;27;20204;-77
2023/07/17 03:23:26;;;;;;;14.00;7.63;;;19.30;99.90;;;;;;5167805;27;20215;-74
2023/07/17 03:25:58;;;;;;;10.23;7.40;;;19.20;99.90;;;;;;5165858;27;20208;-72
2023/07/17 03:28:26;;;;;;;14.07;8.00;;;19.20;99.90;;;;;;5165257;27;20201;-74
2023/07/17 03:30:56;;;;;;;12.80;8.37;;;19.10;99.90;;;;;;5177312;27;20250;-79
2023/07/17 03:33:24;;;;;;;11.23;8.50;;;19.10;99.90;;;;;;5177333;27;20211;-79
2023/07/17 03:35:52;;;;;;;12.07;8.97;;;19.10;99.90;;;;;;5161090;27;20295;-78
2023/07/17 03:38:20;;;;;;;11.97;8.17;;;19.00;99.90;;;;;;5160762;27;20209;-77
2023/07/17 03:40:48;;;;;;;12.87;8.73;;;19.00;99.90;;;;;;5177472;27;20240;-78
2023/07/17 03:43:17;;;;;;;11.27;9.23;;;19.00;99.90;;;;;;5174256;27;20216;-78
2023/07/17 03:45:46;;;;;;;9.80;8.67;;;19.00;99.90;;;;;;5156063;27;20208;-78
2023/07/17 03:48:14;;;;;;;11.73;9.33;;;18.90;99.90;;;;;;5155830;27;20647;-77
2023/07/17 03:50:42;;;;;;;10.03;8.20;;;18.90;99.90;;;;;;5155660;27;20217;-76
2023/07/17 03:53:10;;;;;;;8.97;8.10;;;18.90;99.90;;;;;;5155594;27;20220;-77
2023/07/17 03:55:39;;;;;;;9.37;8.37;;;18.80;99.90;;;;;;5155998;27;20277;-77
2023/07/17 03:58:08;;;;;;;10.30;8.30;;;18.80;99.90;;;;;;5155750;27;20257;-77
2023/07/17 04:00:37;;;;;;;9.10;8.30;;;18.80;99.90;;;;;;5155789;27;20235;-77
2023/07/17 04:03:05;;;;;;;12.20;8.87;;;18.80;99.90;;;;;;5155587;27;20574;-78
2023/07/17 04:05:33;;;;;;;11.63;8.53;;;18.80;99.90;;;;;;5155504;27;20257;-77
2023/07/17 04:08:01;;;;;;;14.53;8.67;;;18.70;99.90;;;;;;5156480;27;20200;-78
2023/07/17 04:10:30;;;;;;;9.23;7.90;;;18.70;99.90;;;;;;5176829;27;20208;-79
2023/07/17 04:12:58;;;;;;;21.13;9.43;;;18.60;99.90;;;;;;5175962;27;20204;-79
2023/07/17 04:15:27;;;;;;;11.47;9.77;;;18.70;99.90;;;;;;5155889;27;20224;-77
2023/07/17 04:17:56;;;;;;;15.53;10.30;;;18.60;99.90;;;;;;5156494;27;20232;-77
2023/07/17 04:20:24;;;;;;;11.40;9.07;;;18.60;99.90;;;;;;5155960;27;20315;-77
2023/07/17 04:22:52;;;;;;;11.40;8.97;;;18.60;99.90;;;;;;5155506;27;20200;-76
2023/07/17 04:25:20;;;;;;;9.47;7.70;;;18.50;99.90;;;;;;5156170;27;20556;-78
2023/07/17 04:27:48;;;;;;;8.67;6.60;;;18.50;99.90;;;;;;5155788;27;20299;-77
2023/07/17 04:30:17;;;;;;;11.93;7.20;;;18.60;99.90;;;;;;5154799;27;20569;-77
2023/07/17 04:32:45;;;;;;;9.73;6.70;;;18.60;99.90;;;;;;5155504;27;20261;-76
2023/07/17 04:35:14;;;;;;;12.73;7.47;;;18.70;99.90;;;;;;5155669;27;20209;-76
2023/07/17 04:37:42;;;;;;;12.23;6.50;;;18.80;99.90;;;;;;5154780;27;20209;-76
2023/07/17 04:40:11;;;;;;;12.30;6.53;;;18.90;99.90;;;;;;5154848;27;20243;-77
2023/07/17 04:42:39;;;;;;;10.40;6.83;;;19.00;99.90;;;;;;5155073;27;20219;-77
2023/07/17 04:45:08;;;;;;;11.90;6.87;;;19.00;99.90;;;;;;5155121;27;20299;-76
2023/07/17 04:47:36;;;;;;;8.63;7.00;;;19.00;99.90;;;;;;5154964;27;20240;-77
2023/07/17 04:50:05;;;;;;;10.77;6.50;;;19.00;99.90;;;;;;5154790;27;20229;-76
2023/07/17 04:52:35;;;;;;;8.57;7.00;;;19.00;99.90;;;;;;5154663;27;20790;-75
2023/07/17 04:55:03;;;;;;;10.00;7.30;;;19.00;99.90;;;;;;5154382;27;20269;-75
2023/07/17 04:57:31;;;;;;;13.37;7.37;;;19.00;99.90;;;;;;5154505;27;20651;-76
2023/07/17 05:00:00;;;;;;;11.07;7.43;;;19.00;99.90;;;;;;5154572;27;20225;-74
2023/07/17 05:02:30;;;;;;;8.57;6.97;;;19.00;99.90;;;;;;5153158;27;20209;-73
2023/07/17 05:04:58;;;;;;;10.17;7.27;;;19.00;99.90;;;;;;5154840;27;20200;-76
2023/07/17 05:07:28;;;;;;;10.87;7.00;;;19.00;99.90;;;;;;5156192;27;20250;-76
2023/07/17 05:09:57;;;;;;;9.93;6.40;;;19.00;99.90;;;;;;5155281;27;20616;-78
2023/07/17 05:12:25;;;;;;;7.43;5.83;;;19.10;99.90;;;;;;5152190;27;20239;-76
2023/07/17 05:14:54;;;;;;;9.33;6.13;;;19.30;99.90;;;;;;5152801;27;20209;-77
2023/07/17 05:17:22;;;;;;;8.43;6.57;;;19.50;99.90;;;;;;5152494;27;20621;-76
2023/07/17 05:19:50;;;;;;;8.10;6.30;;;19.50;99.90;;;;;;5153337;27;20608;-76
2023/07/17 05:22:18;;;;;;;10.00;6.07;;;19.50;99.90;;;;;;5154526;27;20212;-78
2023/07/17 05:24:46;;;;;;;6.93;6.23;;;19.50;99.90;;;;;;5154109;27;20201;-76
2023/07/17 05:27:15;;;;;;;9.17;6.57;;;19.50;99.90;;;;;;5154304;27;20205;-79
2023/07/17 05:29:44;;;;;;;9.70;6.27;;;19.50;99.90;;;;;;5154287;27;20726;-78
2023/07/17 05:32:12;;;;;;;10.37;7.07;;;19.40;99.90;;;;;;5154002;27;20227;-77
2023/07/17 05:34:40;;;;;;;11.40;6.97;;;19.40;99.90;;;;;;5160052;27;20639;-79
2023/07/17 05:37:08;;;;;;;8.77;7.23;;;19.30;99.90;;;;;;5164063;27;20211;-79
2023/07/17 05:39:36;;;;;;;9.87;6.93;;;19.20;99.90;;;;;;5161433;27;20204;-77
2023/07/17 05:42:04;;;;;;;10.17;7.30;;;19.10;99.90;;;;;;5157365;27;20203;-78
2023/07/17 05:44:34;;;;;;;10.33;7.63;;;19.10;99.90;;;;;;5162883;27;20658;-76
2023/07/17 05:47:02;;;;;;;10.30;7.67;;;19.00;99.90;;;;;;5164958;27;20208;-77
2023/07/17 05:49:30;;;;;;;11.07;7.70;;;19.00;99.90;;;;;;5161462;27;20357;-77
2023/07/17 05:51:58;;;;;;;9.87;7.87;;;19.00;99.90;;;;;;5161978;27;20633;-76
2023/07/17 05:54:26;;;;;;;11.80;8.47;;;19.00;99.90;;;;;;5152462;27;20617;-78
2023/07/17 05:56:54;;;;;;;10.17;8.47;;;19.00;99.90;;;;;;5154473;27;20204;-78
2023/07/17 05:59:22;;;;;;;11.07;8.53;;;19.10;99.90;;;;;;5153981;27;20197;-78
2023/07/17 06:01:52;;;;;;;9.77;8.63;;;19.10;99.90;;;;;;5163741;27;20284;-76
2023/07/17 06:04:20;;;;;;;13.10;9.27;;;19.10;99.90;;;;;;5173459;27;20216;-79
2023/07/17 06:06:48;;;;;;;10.63;8.10;;;19.10;99.90;;;;;;5188364;27;20214;-76
2023/07/17 06:09:16;;;;;;;11.37;9.00;;;19.10;99.90;;;;;;5183568;27;20200;-74
2023/07/17 06:11:44;;;;;;;11.17;8.50;;;19.10;99.90;;;;;;5172576;27;20197;-75
2023/07/17 06:14:12;;;;;;;10.47;8.33;;;19.10;99.90;;;;;;5177480;27;20205;-77
2023/07/17 06:16:40;;;;;;;13.67;8.80;;;19.10;99.90;;;;;;5180286;27;20205;-77
2023/07/17 06:19:10;;;;;;;8.73;7.83;;;19.10;99.90;;;;;;5173266;27;20232;-77
2023/07/17 06:21:38;;;;;;;9.87;8.37;;;19.00;99.90;;;;;;5167024;27;20276;-75
2023/07/17 06:24:07;;;;;;;10.53;8.43;;;19.00;99.90;;;;;;5168283;27;20209;-78
2023/07/17 06:26:36;;;;;;;13.30;8.10;;;19.00;99.90;;;;;;5166388;27;20212;-78
2023/07/17 06:29:05;;;;;;;8.90;7.60;;;19.00;99.90;;;;;;5172071;27;20213;-76
2023/07/17 06:31:33;;;;;;;9.67;8.47;;;19.10;99.90;;;;;;5169249;27;20226;-77
2023/07/17 06:34:02;;;;;;;8.70;7.47;;;19.10;99.90;;;;;;5176969;27;20232;-75
2023/07/17 06:36:31;;;;;;;10.23;7.97;;;19.10;99.90;;;;;;5188061;27;20235;-75
2023/07/17 06:38:59;;;;;;;11.17;7.07;;;19.10;99.90;;;;;;5177610;27;20232;-78
2023/07/17 06:41:27;;;;;;;9.47;7.30;;;19.10;99.90;;;;;;5177564;27;20236;-77
2023/07/17 06:43:56;;;;;;;9.80;7.80;;;19.10;99.90;;;;;;5175132;27;20208;-75
2023/07/17 06:46:24;;;;;;;8.63;6.97;;;19.10;99.90;;;;;;5195928;27;20211;-77
2023/07/17 06:48:52;;;;;;;11.80;7.07;;;19.00;99.90;;;;;;5182181;27;20208;-75
2023/07/17 06:51:20;;;;;;;8.30;7.40;;;18.90;99.90;;;;;;5175521;27;20221;-75
2023/07/17 06:53:50;;;;;;;9.43;7.37;;;18.80;99.90;;;;;;5176100;27;20205;-74
2023/07/17 06:56:18;;;;;;;11.07;7.93;;;18.80;99.90;;;;;;5174001;27;20238;-73
2023/07/17 06:58:46;;;;;;;7.90;6.77;;;18.70;99.90;;;;;;5176105;27;20188;-74
2023/07/17 07:01:14;;;;;;;9.33;8.13;;;18.60;99.90;;;;;;5193677;27;20224;-75
2023/07/17 07:03:43;;;;;;;14.13;7.47;;;18.70;99.90;;;;;;5181142;27;20681;-75
2023/07/17 07:06:12;;;;;;;10.27;8.10;;;18.90;99.90;;;;;;5186617;27;20208;-77
2023/07/17 07:08:42;;;;;;;11.50;7.63;;;19.00;99.90;;;;;;5185569;27;20207;-75
2023/07/17 07:11:11;;;;;;;10.03;7.50;;;18.90;99.90;;;;;;5198795;27;20204;-77
2023/07/17 07:13:42;;;;;;;8.53;6.50;;;19.00;99.90;;;;;;5198280;27;20229;-75
2023/07/17 07:16:14;;;;;;;7.83;5.53;;;19.10;99.90;;;;;;5179986;27;20239;-75
2023/07/17 07:18:43;;;;;;;9.20;5.85;;;19.00;99.90;;;;;;5171089;27;20604;-75
2023/07/17 07:21:11;;;;;;;9.83;5.73;;;19.00;99.90;;;;;;5188548;27;20216;-76
2023/07/17 07:23:39;;;;;;;9.67;5.50;;;19.00;99.90;;;;;;5191600;27;20257;-77
2023/07/17 07:26:07;;;;;;;9.07;5.50;;;19.20;99.90;;;;;;5192716;27;20213;-76
2023/07/17 07:28:37;;;;;;;7.23;4.80;;;19.20;99.90;;;;;;5193594;27;20208;-75
2023/07/17 07:32:56;;;;;;;8.80;5.23;;;19.50;99.90;;;;;;5145007;27;20972;-76
2023/07/17 07:35:24;;;;;;;8.67;5.03;;;19.50;99.90;;;;;;5131620;28;20290;-76
2023/07/17 07:37:52;;;;;;;6.87;4.70;;;19.40;99.90;;;;;;5116586;27;20263;-78
2023/07/17 07:40:21;;;;;;;6.17;4.13;;;19.50;99.90;;;;;;5111005;28;20202;-77
2023/07/17 07:42:49;;;;;;;8.47;5.03;;;19.60;99.90;;;;;;5114101;28;20194;-76
2023/07/17 07:45:18;;;;;;;7.63;4.60;;;19.70;99.90;;;;;;5130021;27;20206;-78
2023/07/17 07:47:46;;;;;;;9.00;4.37;;;19.90;99.90;;;;;;5110253;28;20206;-76
2023/07/17 07:50:15;;;;;;;7.80;4.80;;;20.00;99.90;;;;;;5110479;28;20210;-77
2023/07/17 07:52:43;;;;;;;7.73;4.47;;;20.10;99.90;;;;;;5110662;28;20222;-77
2023/07/17 07:55:12;;;;;;;7.13;4.23;;;20.30;99.90;;;;;;5112577;27;20266;-77
2023/07/17 07:57:40;;;;;;;6.87;4.20;;;21.10;99.90;;;;;;5115193;27;20198;-76
2023/07/17 08:00:09;;;;;;;5.40;4.13;;;21.90;99.90;;;;;;5118500;28;20210;-76
2023/07/17 08:02:38;;;;;;;8.47;3.97;;;22.30;99.90;;;;;;5123320;27;20204;-77
2023/07/17 08:05:06;;;;;;;6.40;3.60;;;23.20;99.90;;;;;;5122007;28;20209;-76
2023/07/17 08:07:36;;;;;;;6.67;3.80;;;23.00;99.90;;;;;;5127525;27;20198;-75
2023/07/17 08:10:05;;;;;;;5.03;3.40;;;23.90;99.90;;;;;;5127394;28;20837;-78
2023/07/17 08:12:35;;;;;;;8.87;3.40;;;24.80;99.90;;;;;;5123927;28;20297;-76
2023/07/17 08:15:04;;;;;;;6.30;3.20;;;26.00;99.90;;;;;;5121651;27;20213;-75
2023/07/17 08:17:33;;;;;;;4.40;3.10;;;26.30;99.90;;;;;;5126096;28;20578;-76
2023/07/17 08:20:01;;;;;;;6.25;3.25;;;26.80;98.80;;;;;;5127221;28;20197;-77
2023/07/17 08:22:29;;;;;;;7.53;3.40;;;27.60;99.90;;;;;;5127633;27;20232;-77
2023/07/17 08:24:58;;;;;;;4.68;2.85;;;28.00;97.50;;;;;;5128711;28;20259;-75
2023/07/17 08:27:27;;;;;;;5.57;3.08;;;27.90;96.60;;;;;;5122587;27;20209;-74
2023/07/17 08:29:55;;;;;;;4.88;3.05;;;27.90;86.50;;;;;;5126304;28;20251;-75
2023/07/17 08:32:23;;;;;;;6.88;3.10;;;28.10;90.40;;;;;;5125380;27;20221;-75
2023/07/17 08:34:51;;;;;;;7.03;3.42;;;27.90;94.80;;;;;;5127144;27;20209;-76
2023/07/17 08:37:19;;;;;;;3.88;3.00;;;28.20;97.40;;;;;;5128218;28;20198;-77
2023/07/17 08:39:48;;;;;;;6.80;3.22;;;28.20;94.30;;;;;;5126585;28;20202;-75
2023/07/17 08:42:18;;;;;;;4.57;3.28;;;28.70;94.90;;;;;;5122638;28;20230;-75
2023/07/17 08:44:46;;;;;;;4.82;3.00;;;28.70;93.70;;;;;;5113568;28;20671;-75
2023/07/17 08:47:15;;;;;;;5.95;3.00;;;28.90;88.30;;;;;;5112469;28;20226;-77
2023/07/17 08:49:45;;;;;;;6.45;2.80;;;29.30;92.00;;;;;;5112367;28;20214;-76
2023/07/17 08:52:15;;;;;;;4.40;2.55;;;29.70;88.40;;;;;;5114816;28;20236;-76
2023/07/17 08:54:43;;;;;;;4.72;2.67;;;29.70;81.60;;;;;;5106870;28;20206;-75
2023/07/17 08:57:12;;;;;;;4.97;3.15;;;29.90;90.00;;;;;;5108193;27;20252;-75
2023/07/17 08:59:42;;;;;;;5.40;2.80;;;30.20;83.90;;;;;;5112819;28;20205;-75
2023/07/17 09:02:10;;;;;;;4.57;2.97;;;29.50;86.30;;;;;;5110970;27;20213;-75
2023/07/17 09:04:38;;;;;;;5.40;3.03;;;29.50;84.60;;;;;;5111629;28;20259;-76
2023/07/17 09:07:06;;;;;;;6.50;2.72;;;28.50;90.30;;;;;;5114362;28;20276;-78
2023/07/17 09:09:34;;;;;;;5.40;3.03;;;28.00;93.20;;;;;;5114287;28;20592;-75
2023/07/17 09:12:07;;;;;;;4.40;3.05;;;27.50;95.20;;;;;;5114047;28;20294;-74
2023/07/17 09:14:36;;;;;;;4.97;2.70;;;26.90;95.30;;;;;;5113562;28;20209;-78
2023/07/17 09:17:08;;;;;;;7.15;3.05;;;26.80;99.90;;;;;;5114428;28;20194;-74
2023/07/17 09:19:38;;;;;;;4.65;3.08;;;27.40;98.60;;;;;;5114600;28;20293;-78
2023/07/17 09:22:07;;;;;;;5.35;2.90;;;28.30;93.10;;;;;;5113756;27;20577;-77
2023/07/17 09:24:37;;;;;;;5.05;2.70;;;28.50;91.70;;;;;;5113908;28;20672;-76
2023/07/17 09:27:06;;;;;;;6.03;2.60;;;29.30;91.20;;;;;;5113131;28;20202;-75
2023/07/17 09:29:40;;;;;;;5.30;3.00;;;29.60;90.30;;;;;;5114536;28;20209;-74
2023/07/17 09:32:18;;;;;;;5.10;3.00;;;30.20;86.30;;;;;;5106011;28;20260;-76
2023/07/17 09:34:52;;;;;;;3.67;2.67;;;30.60;85.10;;;;;;5093991;28;20211;-77
2023/07/17 09:37:20;;;;;;;5.20;2.88;;;30.50;83.30;;;;;;5093639;28;20211;-72
2023/07/17 09:39:52;;;;;;;5.05;2.90;;;30.60;79.90;;;;;;5095886;28;20252;-75
2023/07/17 09:42:24;;;;;;;7.03;3.20;;;30.40;74.50;;;;;;5114435;28;20577;-76
2023/07/17 09:44:53;;;;;;;3.80;2.90;;;30.40;72.20;;;;;;5114298;28;20595;-75
2023/07/17 09:47:23;;;;;;;3.92;2.70;;;30.70;75.80;;;;;;5114060;28;20210;-76
2023/07/17 09:49:52;;;;;;;5.78;3.25;;;31.00;74.30;;;;;;5098060;28;20669;-75
2023/07/17 09:52:20;;;;;;;5.15;2.92;;;30.90;67.40;;;;;;5093379;28;20203;-75
2023/07/17 09:54:50;;;;;;;4.65;2.55;;;30.80;75.10;;;;;;5092673;28;20264;-74
2023/07/17 09:57:27;;;;;;;4.90;2.90;;;31.10;78.10;;;;;;5111406;27;20210;-75
2023/07/17 10:00:03;;;;;;;3.75;2.70;;;31.60;68.50;;;;;;5093342;28;20206;-76
2023/07/17 10:02:39;;;;;;;4.15;3.00;;;31.50;67.40;;;;;;5092959;28;20339;-74
2023/07/17 10:05:08;;;;;;;5.40;2.70;;;30.60;68.20;;;;;;5093470;28;20226;-74
2023/07/17 10:07:38;;;;;;;4.38;2.63;;;31.10;69.40;;;;;;5093164;28;20217;-75
2023/07/17 10:10:09;;;;;;;4.03;2.88;;;31.40;71.10;;;;;;5092906;28;20215;-75
2023/07/17 10:12:39;;;;;;;4.72;2.95;;;31.80;68.10;;;;;;5093096;28;20689;-75
2023/07/17 10:15:10;;;;;;;5.35;3.03;;;31.70;60.60;;;;;;5093120;28;20263;-77
2023/07/17 10:17:39;;;;;;;4.10;2.70;;;31.80;61.10;;;;;;5093321;28;20211;-75
2023/07/17 10:20:09;;;;;;;4.68;2.97;;;32.20;64.00;;;;;;5093128;28;20309;-75
2023/07/17 10:22:43;;;;;;;4.70;2.63;;;32.40;68.00;;;;;;5092521;28;20234;-76
2023/07/17 10:25:24;;;;;;;5.30;2.97;;;32.10;67.00;;;;;;5093127;28;20286;-72
2023/07/17 10:27:56;;;;;;;4.95;3.00;;;32.70;59.50;;;;;;5109960;28;20244;-77
2023/07/17 10:30:26;;;;;;;4.07;2.50;;;31.70;56.60;;;;;;5113556;28;20251;-74
2023/07/17 10:33:11;;;;;;;5.68;2.78;;;31.50;65.30;;;;;;5113247;28;20198;-76
2023/07/17 10:35:50;;;;;;;5.47;3.20;;;31.80;61.80;;;;;;5110267;28;20202;-74
2023/07/17 10:38:23;;;;;;;5.75;2.90;;;32.20;60.10;;;;;;5110349;28;20276;-76
2023/07/17 10:41:02;;;;;;;6.40;2.83;;;31.90;56.80;;;;;;5110792;28;20274;-75
2023/07/17 10:43:30;;;;;;;5.18;2.97;;;31.70;59.90;;;;;;5107537;28;20304;-75
2023/07/17 10:45:59;;;;;;;4.80;3.10;;;32.00;63.00;;;;;;5111202;28;20766;-75
2023/07/17 10:48:34;;;;;;;3.83;2.80;;;32.20;60.20;;;;;;5112811;28;20202;-75
2023/07/17 10:51:03;;;;;;;5.53;3.13;;;32.60;57.60;;;;;;5112964;28;20209;-75
2023/07/17 10:53:31;;;;;;;5.50;2.70;;;33.20;55.50;;;;;;5112498;28;20305;-75
2023/07/17 10:55:59;;;;;;;4.50;2.78;;;33.50;55.60;;;;;;5109656;28;20289;-76
2023/07/17 10:58:28;;;;;;;6.10;2.95;;;33.20;54.20;;;;;;5132373;27;20258;-75
2023/07/17 11:00:56;;;;;;;5.05;2.90;;;33.30;55.10;;;;;;5133381;27;20209;-75
2023/07/17 11:03:26;;;;;;;4.55;2.90;;;32.60;54.70;;;;;;5132534;27;20221;-77
2023/07/17 11:05:57;;;;;;;3.05;2.60;;;32.40;56.80;;;;;;5123361;27;20208;-75
2023/07/17 11:08:26;;;;;;;4.65;3.10;;;32.50;54.80;;;;;;5112299;28;20259;-77
2023/07/17 11:10:54;;;;;;;4.40;2.92;;;32.30;52.80;;;;;;5112543;28;20226;-77
2023/07/17 11:13:23;;;;;;;8.45;2.95;;;32.20;53.20;;;;;;5112573;28;20243;-76
2023/07/17 11:15:51;;;;;;;5.80;2.80;;;31.70;57.60;;;;;;5103366;28;20729;-75
2023/07/17 11:18:19;;;;;;;5.43;2.90;;;31.40;55.00;;;;;;5092208;28;20245;-74
2023/07/17 11:20:49;;;;;;;4.35;2.83;;;30.70;56.30;;;;;;5091894;28;20210;-74
2023/07/17 11:23:19;;;;;;;4.55;2.92;;;30.30;55.30;;;;;;5091809;28;20242;-77
2023/07/17 11:25:47;;;;;;;5.00;2.88;;;30.40;59.40;;;;;;5091757;28;20624;-77
2023/07/17 11:28:15;;;;;;;3.50;2.50;;;30.30;55.50;;;;;;5109268;28;20202;-77
2023/07/17 11:30:43;;;;;;;4.60;3.00;;;30.10;58.30;;;;;;5112172;28;20205;-77
2023/07/17 11:33:11;;;;;;;5.53;2.90;;;30.10;62.70;;;;;;5093044;28;20234;-76
2023/07/17 11:35:40;;;;;;;5.20;2.97;;;30.30;59.10;;;;;;5102516;28;20207;-75
2023/07/17 11:38:09;;;;;;;8.10;2.80;;;29.60;58.00;;;;;;5109094;28;20206;-76
2023/07/17 11:40:55;;;;;;;5.40;3.15;;;29.60;63.60;;;;;;5111120;28;20286;-78
2023/07/17 11:43:25;;;;;;;6.03;3.20;;;29.40;61.00;;;;;;5110667;28;20624;-78
2023/07/17 11:46:02;;;;;;;5.13;3.03;;;29.00;61.50;;;;;;5110129;28;20313;-76
2023/07/17 11:48:32;;;;;;;4.87;2.80;;;28.60;66.30;;;;;;5112423;28;20266;-77
2023/07/17 11:51:03;;;;;;;5.70;3.17;;;28.50;66.00;;;;;;5108037;28;20575;-76
2023/07/17 11:53:32;;;;;;;5.63;3.00;;;29.00;67.90;;;;;;5111766;28;20285;-77
2023/07/17 11:56:03;;;;;;;5.10;3.10;;;28.20;69.30;;;;;;5112370;28;20233;-75
2023/07/17 11:58:34;;;;;;;4.80;2.83;;;28.30;66.60;;;;;;5112842;28;20671;-77
2023/07/17 12:01:07;;;;;;;5.83;3.20;;;28.60;69.20;;;;;;5093378;28;20222;-74
2023/07/17 12:03:36;;;;;;;7.60;3.20;;;28.90;72.70;;;;;;5092280;28;20239;-77
2023/07/17 12:06:04;;;;;;;4.93;3.10;;;29.10;66.50;;;;;;5112903;28;20234;-76
2023/07/17 12:08:32;;;;;;;5.30;3.40;;;28.20;68.80;;;;;;5113141;28;20605;-76
2023/07/17 12:11:01;;;;;;;5.33;3.37;;;28.60;76.80;;;;;;5113642;28;20263;-76
2023/07/17 12:13:29;;;;;;;5.57;3.23;;;28.50;72.80;;;;;;5107460;28;20274;-75
2023/07/17 12:15:57;;;;;;;6.37;3.77;;;29.10;70.80;;;;;;5092750;28;20210;-77
2023/07/17 12:18:26;;;;;;;6.77;3.30;;;29.00;63.20;;;;;;5094874;28;20282;-76
2023/07/17 12:20:54;;;;;;;6.47;3.53;;;29.10;64.90;;;;;;5095850;28;20234;-75
2023/07/17 12:23:23;;;;;;;7.90;3.40;;;29.00;65.10;;;;;;5095850;28;20227;-75
2023/07/17 12:25:51;;;;;;;4.93;3.20;;;28.70;65.30;;;;;;5096869;28;20207;-75
2023/07/17 12:28:20;;;;;;;4.93;3.17;;;28.90;71.80;;;;;;5096341;28;20202;-78
2023/07/17 12:30:49;;;;;;;4.23;2.70;;;29.40;72.40;;;;;;5095891;28;20219;-78
2023/07/17 12:33:17;;;;;;;6.50;3.57;;;29.60;72.10;;;;;;5101771;28;20274;-77
2023/07/17 12:35:46;;;;;;;7.07;3.47;;;29.10;68.40;;;;;;5096344;28;20336;-77
2023/07/17 12:38:14;;;;;;;6.60;3.57;;;29.20;73.20;;;;;;5097253;28;20206;-77
2023/07/17 12:40:42;;;;;;;7.07;3.57;;;29.20;69.10;;;;;;5095620;28;20215;-76
2023/07/17 12:43:10;;;;;;;4.13;3.00;;;29.40;72.20;;;;;;5110473;28;20234;-76
2023/07/17 12:45:40;;;;;;;5.20;3.50;;;29.60;68.20;;;;;;5114613;28;20209;-76
2023/07/17 12:48:10;;;;;;;6.17;3.40;;;29.80;62.30;;;;;;5114244;28;20308;-76
2023/07/17 12:50:38;;;;;;;5.20;3.10;;;29.40;69.10;;;;;;5112050;28;20206;-77
2023/07/17 12:53:06;;;;;;;5.00;2.77;;;29.50;63.80;;;;;;5118980;28;20403;-77
2023/07/17 12:55:35;;;;;;;5.37;3.43;;;29.40;72.50;;;;;;5117573;28;20202;-74